Time;durP1;ratioP1;P1;durP2;ratioP2;P2;SDS_P1;SDS_P2;PMS_P1;PMS_P2;Temp;Humidity;BMP_temperature;BMP_pressure;BME280_temperature;BME280_humidity;BME280_pressure;Samples;Min_cycle;Max_cycle;Signal;HPM_P1;HPM_P2
2021/03/21 00:00:29;;;;;;;3.78;1.98;;;3.30;71.50;;;;;;5073431;28;20524;-58
2021/03/21 00:02:55;;;;;;;5.13;2.22;;;3.30;71.30;;;;;;5073678;28;20025;-54
2021/03/21 00:05:20;;;;;;;2.42;1.80;;;3.30;71.70;;;;;;5072517;28;20020;-57
2021/03/21 00:07:50;;;;;;;5.85;2.20;;;3.30;71.50;;;;;;5073201;28;20024;-57
2021/03/21 00:10:16;;;;;;;3.08;1.92;;;3.30;71.70;;;;;;5073395;28;20099;-54
2021/03/21 00:12:41;;;;;;;5.05;2.10;;;3.30;71.80;;;;;;5073102;28;20443;-58
2021/03/21 00:15:08;;;;;;;4.10;2.17;;;3.30;72.40;;;;;;5073169;28;20039;-55
2021/03/21 00:17:33;;;;;;;6.38;2.50;;;3.30;72.60;;;;;;5073564;28;20375;-58
2021/03/21 00:19:59;;;;;;;4.75;2.35;;;3.30;72.50;;;;;;5073094;28;20025;-57
2021/03/21 00:22:24;;;;;;;4.55;2.13;;;3.30;72.30;;;;;;5072042;28;20103;-58
2021/03/21 00:24:50;;;;;;;2.75;1.70;;;3.30;73.10;;;;;;5072904;28;20029;-57
2021/03/21 00:27:16;;;;;;;3.42;2.08;;;3.30;72.50;;;;;;5072952;28;20078;-54
2021/03/21 00:29:42;;;;;;;4.95;2.38;;;3.30;73.20;;;;;;5072967;28;20065;-55
2021/03/21 00:32:08;;;;;;;3.58;2.15;;;3.30;73.00;;;;;;5072741;28;20050;-56
2021/03/21 00:34:34;;;;;;;4.82;2.08;;;3.30;73.00;;;;;;5072923;28;20535;-53
2021/03/21 00:36:59;;;;;;;2.83;2.00;;;3.30;72.80;;;;;;5071677;28;20069;-57
2021/03/21 00:39:25;;;;;;;4.72;2.95;;;3.40;73.30;;;;;;5072687;28;20020;-55
2021/03/21 00:41:50;;;;;;;3.70;2.40;;;3.40;73.70;;;;;;5072765;28;20480;-57
2021/03/21 00:44:16;;;;;;;4.63;2.60;;;3.40;73.40;;;;;;5072440;28;20035;-57
2021/03/21 00:46:41;;;;;;;6.43;2.50;;;3.40;73.80;;;;;;5087100;28;20492;-56
2021/03/21 00:49:07;;;;;;;3.30;2.22;;;3.40;74.10;;;;;;5072373;28;20043;-58
2021/03/21 00:51:32;;;;;;;4.30;2.58;;;3.40;74.20;;;;;;5076419;28;20024;-57
2021/03/21 00:53:58;;;;;;;8.85;3.28;;;3.40;74.20;;;;;;5090693;28;20095;-54
2021/03/21 00:56:29;;;;;;;4.13;2.47;;;3.40;74.20;;;;;;5092263;28;20509;-54
2021/03/21 00:58:55;;;;;;;5.78;2.75;;;3.40;74.30;;;;;;5091682;28;20024;-53
2021/03/21 01:01:21;;;;;;;5.30;2.45;;;3.40;74.00;;;;;;5092383;28;20020;-58
2021/03/21 01:03:47;;;;;;;3.58;2.15;;;3.40;74.70;;;;;;5092455;28;20475;-56
2021/03/21 01:06:12;;;;;;;3.97;2.10;;;3.50;74.90;;;;;;5091090;28;20032;-55
2021/03/21 01:08:39;;;;;;;3.92;2.47;;;3.40;74.90;;;;;;5092420;28;20039;-56
2021/03/21 01:11:12;;;;;;;5.38;2.90;;;3.40;75.50;;;;;;5091904;28;20107;-54
2021/03/21 01:13:39;;;;;;;3.13;2.20;;;3.50;75.40;;;;;;5080566;28;20606;-56
2021/03/21 01:16:26;;;;;;;5.45;2.70;;;3.50;75.80;;;;;;5071712;28;20047;-51
2021/03/21 01:18:53;;;;;;;;;;;3.50;75.40;;;;;;5085114;28;20370;-58
2021/03/21 01:21:20;;;;;;;7.35;2.40;;;3.50;77.20;;;;;;5090922;28;20244;-54
2021/03/21 01:23:46;;;;;;;6.45;3.05;;;3.50;75.30;;;;;;5092089;28;20032;-54
2021/03/21 01:26:18;;;;;;;7.25;3.03;;;3.50;75.60;;;;;;5071759;28;20110;-55
2021/03/21 01:28:44;;;;;;;3.85;2.50;;;3.50;76.90;;;;;;5071649;28;20134;-54
2021/03/21 01:31:13;;;;;;;4.82;2.63;;;3.50;75.90;;;;;;5071375;28;20024;-56
2021/03/21 01:33:39;;;;;;;4.15;2.50;;;3.50;76.50;;;;;;5071743;28;20025;-56
2021/03/21 01:36:11;;;;;;;5.50;3.22;;;3.60;76.20;;;;;;5070339;28;20032;-57
2021/03/21 01:38:37;;;;;;;5.72;2.60;;;3.60;76.20;;;;;;5070428;28;20432;-58
2021/03/21 01:41:06;;;;;;;5.93;2.92;;;3.60;77.60;;;;;;5070598;28;20063;-58
2021/03/21 01:43:36;;;;;;;7.10;3.58;;;3.60;77.60;;;;;;5082781;28;20064;-58
2021/03/21 01:46:02;;;;;;;6.70;3.33;;;3.60;77.60;;;;;;5082911;28;20031;-57
2021/03/21 01:48:34;;;;;;;7.35;3.00;;;3.50;78.10;;;;;;5084095;28;20029;-55
2021/03/21 01:51:05;;;;;;;5.65;2.80;;;3.50;77.90;;;;;;5071290;28;20176;-55
2021/03/21 01:53:33;;;;;;;5.20;2.92;;;3.60;78.30;;;;;;5071352;28;20438;-53
2021/03/21 01:56:00;;;;;;;6.57;3.17;;;3.60;78.40;;;;;;5071113;28;20044;-58
2021/03/21 01:58:29;;;;;;;5.35;3.22;;;3.60;80.40;;;;;;5073630;28;20455;-57
2021/03/21 02:00:57;;;;;;;5.47;2.53;;;3.60;80.40;;;;;;5071186;28;20025;-56
2021/03/21 02:03:23;;;;;;;6.13;3.63;;;3.60;82.30;;;;;;5071029;28;20045;-56
2021/03/21 02:05:54;;;;;;;5.88;4.32;;;3.60;82.30;;;;;;5070356;28;20070;-54
2021/03/21 02:08:39;;;;;;;6.65;3.85;;;3.60;83.50;;;;;;5070952;28;20032;-54
2021/03/21 02:11:27;;;;;;;7.18;4.15;;;3.70;86.00;;;;;;5062196;28;20027;-56
2021/03/21 02:14:17;;;;;;;6.97;4.45;;;3.70;86.30;;;;;;5070857;28;20024;-58
2021/03/21 02:16:53;;;;;;;7.90;4.35;;;3.70;91.60;;;;;;5087753;28;20035;-58
2021/03/21 02:19:34;;;;;;;8.27;5.07;;;3.70;88.30;;;;;;5079537;28;20124;-56
2021/03/21 02:22:04;;;;;;;6.72;4.55;;;3.80;90.60;;;;;;5071640;28;20035;-55
2021/03/21 02:24:32;;;;;;;10.35;5.32;;;3.70;92.20;;;;;;5072482;28;20407;-56
2021/03/21 02:27:22;;;;;;;5.60;4.07;;;3.70;91.70;;;;;;5072647;28;20133;-55
2021/03/21 02:30:05;;;;;;;7.05;5.00;;;3.70;92.20;;;;;;5072206;28;20108;-56
2021/03/21 02:32:42;;;;;;;9.73;4.90;;;3.70;92.10;;;;;;5072443;28;20024;-57
2021/03/21 02:35:21;;;;;;;8.23;6.05;;;3.70;94.20;;;;;;5071830;28;20033;-58
2021/03/21 02:37:55;;;;;;;7.82;4.90;;;3.70;94.30;;;;;;5072002;28;20099;-55
2021/03/21 02:40:31;;;;;;;10.90;6.10;;;3.70;94.10;;;;;;5072467;28;20620;-57
2021/03/21 02:43:29;;;;;;;13.02;6.20;;;3.70;95.50;;;;;;5072212;28;20020;-55
2021/03/21 02:45:59;;;;;;;7.28;5.00;;;3.70;98.70;;;;;;5039478;28;20037;-55
2021/03/21 02:48:32;;;;;;;7.85;5.13;;;3.70;99.10;;;;;;5078965;28;20028;-57
2021/03/21 02:51:19;;;;;;;8.32;5.05;;;3.70;98.50;;;;;;5084821;28;20439;-57
2021/03/21 02:54:03;;;;;;;9.25;5.32;;;3.70;99.90;;;;;;5070844;28;20550;-54
2021/03/21 02:56:30;;;;;;;8.93;5.68;;;3.60;99.90;;;;;;5072171;28;20396;-53
2021/03/21 02:59:08;;;;;;;9.65;6.07;;;3.70;99.90;;;;;;5071118;28;20510;-53
2021/03/21 03:01:39;;;;;;;7.65;4.72;;;3.70;99.90;;;;;;5072144;28;20033;-55
2021/03/21 03:04:13;;;;;;;8.40;6.03;;;3.60;99.90;;;;;;5072028;28;20088;-58
2021/03/21 03:06:47;;;;;;;10.70;5.63;;;3.70;99.90;;;;;;5071139;28;20032;-56
2021/03/21 03:09:19;;;;;;;9.68;5.82;;;3.60;99.90;;;;;;5072151;28;20025;-56
2021/03/21 03:11:58;;;;;;;7.95;5.57;;;3.60;99.90;;;;;;5071940;28;20017;-58
2021/03/21 03:14:47;;;;;;;11.82;5.78;;;3.60;99.90;;;;;;5072150;28;20029;-56
2021/03/21 03:17:41;;;;;;;9.07;6.03;;;3.60;99.90;;;;;;5071912;28;20109;-56
2021/03/21 03:20:20;;;;;;;8.27;5.15;;;3.60;99.90;;;;;;5071112;28;20028;-58
2021/03/21 03:23:02;;;;;;;9.57;4.82;;;3.60;99.90;;;;;;5074648;28;20021;-56
2021/03/21 03:25:45;;;;;;;7.50;5.13;;;3.60;99.90;;;;;;5075665;28;20063;-53
2021/03/21 03:28:37;;;;;;;7.20;5.10;;;3.70;99.90;;;;;;5074181;28;20035;-58
2021/03/21 03:31:16;;;;;;;8.65;4.70;;;3.70;99.90;;;;;;5075599;28;20063;-57
2021/03/21 03:33:41;;;;;;;8.75;5.85;;;3.70;99.90;;;;;;5075864;28;20032;-56
2021/03/21 03:36:10;;;;;;;7.95;5.20;;;3.70;99.90;;;;;;5074752;28;20024;-54
2021/03/21 03:38:37;;;;;;;9.23;5.72;;;3.70;99.90;;;;;;5075342;28;20060;-53
2021/03/21 03:41:11;;;;;;;10.93;6.35;;;3.70;99.90;;;;;;5075630;28;20038;-57
2021/03/21 03:43:46;;;;;;;8.95;5.32;;;3.70;99.90;;;;;;5075647;28;20040;-57
2021/03/21 03:46:30;;;;;;;10.38;5.90;;;3.80;99.90;;;;;;5075096;28;20047;-57
2021/03/21 03:49:14;;;;;;;7.10;4.60;;;3.80;99.90;;;;;;5086438;28;20481;-54
2021/03/21 03:51:50;;;;;;;7.40;5.18;;;3.80;99.90;;;;;;5081889;28;20180;-54
2021/03/21 03:54:28;;;;;;;11.05;6.70;;;3.80;99.90;;;;;;5075357;28;20021;-56
2021/03/21 03:57:04;;;;;;;9.90;5.43;;;3.80;99.90;;;;;;5074880;28;20038;-56
2021/03/21 03:59:43;;;;;;;8.40;4.95;;;3.80;99.90;;;;;;5075192;28;20067;-58
2021/03/21 04:02:12;;;;;;;8.57;5.90;;;3.80;99.90;;;;;;5074752;28;20451;-53
2021/03/21 04:04:50;;;;;;;8.40;4.93;;;3.90;99.90;;;;;;5075273;28;20111;-58
2021/03/21 04:07:31;;;;;;;8.05;4.90;;;3.90;99.90;;;;;;5073857;28;20042;-58
2021/03/21 04:10:18;;;;;;;7.70;5.40;;;3.90;99.90;;;;;;5075138;28;20028;-56
2021/03/21 04:13:06;;;;;;;7.78;5.03;;;3.90;99.90;;;;;;5073982;28;20074;-56
2021/03/21 04:15:37;;;;;;;6.18;4.68;;;3.90;99.90;;;;;;5074825;28;20040;-58
2021/03/21 04:18:34;;;;;;;9.30;4.82;;;3.90;99.90;;;;;;5074273;28;20036;-59
2021/03/21 04:21:06;;;;;;;;;;;3.90;99.90;;;;;;5071056;28;20116;-57
2021/03/21 04:23:38;;;;;;;4.78;3.10;;;4.00;99.90;;;;;;5063857;28;19908;-56
2021/03/21 04:26:12;;;;;;;5.43;3.63;;;4.00;99.90;;;;;;5082465;28;20054;-59
2021/03/21 04:28:47;;;;;;;5.20;3.58;;;4.00;99.90;;;;;;5089460;28;20467;-56
2021/03/21 04:31:16;;;;;;;7.87;5.47;;;4.00;99.90;;;;;;5077313;28;20040;-58
2021/03/21 04:33:52;;;;;;;7.63;4.25;;;4.00;99.90;;;;;;5091537;28;20265;-58
2021/03/21 04:36:25;;;;;;;6.88;3.97;;;4.10;99.90;;;;;;5086386;28;20054;-57
2021/03/21 04:39:00;;;;;;;9.50;4.00;;;4.10;99.90;;;;;;5062996;28;20446;-58
2021/03/21 04:41:30;;;;;;;7.93;5.20;;;4.00;99.90;;;;;;5072488;28;20028;-57
2021/03/21 04:44:04;;;;;;;6.57;4.03;;;4.10;99.90;;;;;;5072804;28;20035;-55
2021/03/21 04:46:47;;;;;;;5.13;3.80;;;4.10;99.90;;;;;;5072319;28;20033;-55
2021/03/21 04:49:17;;;;;;;6.75;4.43;;;4.10;99.90;;;;;;5084749;28;20020;-58
2021/03/21 04:51:45;;;;;;;5.50;3.85;;;4.10;99.90;;;;;;5078423;28;20588;-59
2021/03/21 04:54:31;;;;;;;6.55;3.85;;;4.10;99.90;;;;;;5072248;28;20062;-56
2021/03/21 04:57:08;;;;;;;5.80;4.22;;;4.10;99.90;;;;;;5070850;28;20127;-56
2021/03/21 04:59:38;;;;;;;6.32;3.53;;;4.10;99.90;;;;;;5072354;28;20391;-55
2021/03/21 05:02:13;;;;;;;6.90;4.43;;;4.10;99.90;;;;;;5071776;28;20591;-58
2021/03/21 05:04:51;;;;;;;4.17;2.93;;;4.20;99.90;;;;;;5088199;28;20024;-58
2021/03/21 05:07:28;;;;;;;8.32;3.88;;;4.20;99.90;;;;;;5071695;28;20020;-53
2021/03/21 05:10:13;;;;;;;6.65;4.13;;;4.20;99.90;;;;;;5072835;28;20051;-58
2021/03/21 05:12:47;;;;;;;6.78;4.50;;;4.20;99.90;;;;;;5090145;28;20031;-58
2021/03/21 05:15:51;;;;;;;6.55;4.20;;;4.20;99.90;;;;;;5092551;28;20375;-55
2021/03/21 05:18:27;;;;;;;5.65;3.50;;;4.30;99.90;;;;;;5086501;28;20377;-58
2021/03/21 05:21:14;;;;;;;6.18;4.60;;;4.30;99.90;;;;;;5071038;28;20024;-58
2021/03/21 05:23:52;;;;;;;5.85;3.65;;;4.30;99.90;;;;;;5063116;28;20093;-57
2021/03/21 05:26:24;;;;;;;4.75;3.53;;;4.30;99.90;;;;;;5071798;28;20052;-58
2021/03/21 05:28:59;;;;;;;5.20;3.50;;;4.40;99.90;;;;;;5071750;28;20074;-58
2021/03/21 05:31:26;;;;;;;7.28;4.28;;;4.40;99.90;;;;;;5071635;28;20029;-55
2021/03/21 05:33:52;;;;;;;3.78;2.63;;;4.40;99.90;;;;;;5071535;28;20031;-54
2021/03/21 05:36:40;;;;;;;5.00;3.30;;;4.40;99.90;;;;;;5070971;28;20020;-54
2021/03/21 05:39:29;;;;;;;5.18;3.05;;;4.40;99.90;;;;;;5075746;28;20035;-57
2021/03/21 05:42:10;;;;;;;4.03;3.17;;;4.50;99.90;;;;;;5066039;28;20457;-56
2021/03/21 05:44:56;;;;;;;4.53;3.20;;;4.50;99.90;;;;;;5071272;28;20391;-58
2021/03/21 05:47:46;;;;;;;3.47;2.40;;;4.50;99.90;;;;;;5070091;28;20035;-58
2021/03/21 05:50:59;;;;;;;4.22;2.90;;;4.50;99.90;;;;;;5085444;28;20040;-56
2021/03/21 05:53:43;;;;;;;3.90;2.90;;;4.60;99.90;;;;;;5086169;28;20129;-57
2021/03/21 05:56:09;;;;;;;5.57;3.63;;;4.60;99.90;;;;;;5090833;28;20046;-58
2021/03/21 05:58:56;;;;;;;5.03;3.15;;;4.60;99.90;;;;;;5087277;28;20382;-54
2021/03/21 06:01:48;;;;;;;4.32;2.75;;;4.70;99.90;;;;;;5091446;28;20489;-58
2021/03/21 06:04:50;;;;;;;4.00;2.72;;;4.80;99.90;;;;;;5061299;28;20547;-58
2021/03/21 06:07:34;;;;;;;4.72;3.30;;;4.80;99.90;;;;;;5069786;28;20024;-56
2021/03/21 06:10:38;;;;;;;3.72;2.55;;;4.90;99.90;;;;;;5070582;28;20039;-57
2021/03/21 06:13:21;;;;;;;5.15;3.75;;;5.00;99.90;;;;;;5073029;28;20032;-59
2021/03/21 06:16:16;;;;;;;4.57;3.10;;;5.00;99.90;;;;;;5091239;28;20023;-55
2021/03/21 06:19:01;;;;;;;6.15;3.63;;;5.10;99.90;;;;;;5076237;28;20085;-58
2021/03/21 06:21:58;;;;;;;4.25;3.20;;;5.30;99.90;;;;;;5069656;28;20043;-57
2021/03/21 06:24:50;;;;;;;6.38;4.18;;;5.30;99.90;;;;;;5023203;28;20045;-56
2021/03/21 06:27:42;;;;;;;3.83;3.17;;;5.40;99.90;;;;;;5070923;28;20354;-58
2021/03/21 06:30:26;;;;;;;3.78;2.80;;;5.40;99.90;;;;;;5029336;28;20555;-57
2021/03/21 06:33:16;;;;;;;4.03;3.10;;;5.50;99.90;;;;;;5070870;28;20021;-58
2021/03/21 06:36:21;;;;;;;4.07;3.03;;;5.50;99.90;;;;;;5066746;28;20123;-59
2021/03/21 06:39:12;;;;;;;3.75;2.40;;;5.50;99.90;;;;;;5063004;28;20032;-58
2021/03/21 06:42:06;;;;;;;3.42;2.65;;;5.60;99.90;;;;;;5070683;28;20020;-58
2021/03/21 06:44:44;;;;;;;2.67;1.60;;;5.60;99.90;;;;;;5090513;28;20116;-57
2021/03/21 06:47:36;;;;;;;2.60;1.92;;;5.60;99.90;;;;;;5082522;28;20059;-58
2021/03/21 06:50:40;;;;;;;3.10;2.30;;;5.60;99.90;;;;;;5069854;28;20081;-59
2021/03/21 06:53:36;;;;;;;3.17;2.40;;;5.60;99.90;;;;;;5060555;28;20059;-58
2021/03/21 06:56:32;;;;;;;3.58;2.72;;;5.60;99.90;;;;;;5070609;28;20023;-57
2021/03/21 06:59:36;;;;;;;2.90;2.20;;;5.60;99.90;;;;;;5072965;28;20040;-55
2021/03/21 07:02:38;;;;;;;3.90;2.28;;;5.70;99.90;;;;;;5073407;28;20297;-54
2021/03/21 07:05:21;;;;;;;2.67;2.10;;;5.70;99.90;;;;;;5074267;28;20040;-55
2021/03/21 07:08:08;;;;;;;3.15;2.08;;;5.80;99.90;;;;;;5088488;28;20116;-57
2021/03/21 07:10:56;;;;;;;3.08;2.22;;;5.90;99.90;;;;;;5074562;28;20055;-56
2021/03/21 07:14:03;;;;;;;2.90;2.38;;;6.00;99.90;;;;;;5079215;28;20799;-57
2021/03/21 07:17:09;;;;;;;3.30;2.80;;;6.10;99.90;;;;;;5093163;28;20057;-59
2021/03/21 07:19:56;;;;;;;2.90;2.17;;;6.10;99.90;;;;;;5080463;28;20042;-58
2021/03/21 07:23:03;;;;;;;2.40;2.20;;;6.20;99.90;;;;;;5064332;28;20027;-57
2021/03/21 07:25:45;;;;;;;6.00;2.92;;;6.30;99.90;;;;;;5072582;28;20403;-56
2021/03/21 07:28:19;;;;;;;2.67;2.35;;;6.40;99.90;;;;;;5074111;28;20032;-56
2021/03/21 07:31:12;;;;;;;3.13;2.50;;;6.50;99.90;;;;;;5084367;28;20028;-58
2021/03/21 07:33:58;;;;;;;3.20;2.53;;;6.70;99.90;;;;;;5073553;28;20047;-54
2021/03/21 07:36:33;;;;;;;3.25;2.50;;;6.70;99.90;;;;;;5046946;28;20044;-55
2021/03/21 07:39:23;;;;;;;2.90;2.35;;;6.80;99.90;;;;;;5073595;28;20032;-58
2021/03/21 07:42:22;;;;;;;2.40;2.20;;;6.80;99.90;;;;;;5073177;28;20025;-58
2021/03/21 07:45:19;;;;;;;2.55;2.30;;;6.80;99.90;;;;;;5073396;28;20120;-58
2021/03/21 07:48:02;;;;;;;2.35;2.05;;;6.80;99.90;;;;;;5073252;28;20067;-57
2021/03/21 07:50:35;;;;;;;3.20;2.58;;;6.70;99.90;;;;;;5072091;28;20029;-56
2021/03/21 07:53:21;;;;;;;2.25;1.98;;;6.70;99.90;;;;;;5065850;28;20044;-56
2021/03/21 07:56:06;;;;;;;2.28;1.85;;;6.80;99.90;;;;;;5072857;28;20524;-57
2021/03/21 07:58:44;;;;;;;2.40;1.42;;;6.80;99.90;;;;;;5073568;28;20032;-58
2021/03/21 08:01:10;;;;;;;1.67;1.40;;;6.80;99.90;;;;;;5093563;28;20479;-58
2021/03/21 08:03:46;;;;;;;2.72;1.60;;;6.90;99.90;;;;;;5092975;28;20103;-58
2021/03/21 08:06:16;;;;;;;1.30;1.10;;;6.90;99.90;;;;;;5092683;28;20035;-55
2021/03/21 08:08:50;;;;;;;1.10;0.98;;;7.00;99.90;;;;;;5089375;28;20064;-53
2021/03/21 08:11:19;;;;;;;2.42;1.50;;;7.00;99.90;;;;;;5076195;28;20025;-56
2021/03/21 08:13:51;;;;;;;1.00;0.90;;;7.10;99.90;;;;;;5091014;28;20399;-59
2021/03/21 08:16:27;;;;;;;2.85;1.27;;;7.10;99.90;;;;;;5083847;28;20027;-56
2021/03/21 08:18:54;;;;;;;1.17;0.93;;;7.20;99.90;;;;;;5059830;28;20044;-54
2021/03/21 08:21:32;;;;;;;1.63;1.00;;;7.20;99.90;;;;;;5083256;28;20099;-57
2021/03/21 08:24:06;;;;;;;1.30;1.05;;;7.30;99.90;;;;;;5072400;28;20028;-57
2021/03/21 08:26:32;;;;;;;1.20;1.10;;;7.40;99.90;;;;;;5088854;28;20033;-55
2021/03/21 08:29:24;;;;;;;1.17;0.93;;;7.50;99.90;;;;;;5072079;28;20029;-57
2021/03/21 08:32:09;;;;;;;1.27;0.85;;;7.60;99.90;;;;;;5070600;28;20099;-57
2021/03/21 08:34:38;;;;;;;2.60;1.15;;;7.60;99.90;;;;;;5082758;28;20030;-58
2021/03/21 08:37:17;;;;;;;1.58;1.38;;;7.50;99.90;;;;;;5085310;28;20024;-59
2021/03/21 08:39:46;;;;;;;1.30;1.20;;;7.40;99.90;;;;;;5086079;28;20032;-57
2021/03/21 08:42:27;;;;;;;1.23;0.90;;;7.40;99.90;;;;;;5085964;28;20021;-58
2021/03/21 08:45:04;;;;;;;2.63;1.40;;;7.40;99.90;;;;;;5062262;28;20040;-58
2021/03/21 08:47:30;;;;;;;1.85;1.48;;;7.40;99.90;;;;;;5075033;28;20532;-56
2021/03/21 08:49:57;;;;;;;1.60;1.20;;;7.50;99.90;;;;;;5072088;28;20395;-58
2021/03/21 08:52:41;;;;;;;1.38;1.25;;;7.50;99.90;;;;;;5073129;28;20103;-58
2021/03/21 08:55:30;;;;;;;1.80;1.27;;;7.50;99.90;;;;;;5072942;28;20048;-53
2021/03/21 08:57:56;;;;;;;1.63;1.08;;;7.50;99.90;;;;;;5079749;28;20040;-58
2021/03/21 09:00:33;;;;;;;1.40;1.00;;;7.50;99.90;;;;;;5072935;28;20024;-58
2021/03/21 09:02:59;;;;;;;1.02;0.70;;;7.80;99.90;;;;;;5063841;28;20031;-59
2021/03/21 09:05:26;;;;;;;1.40;0.90;;;7.90;99.90;;;;;;5072222;28;20325;-58
2021/03/21 09:07:52;;;;;;;1.00;0.90;;;8.10;99.90;;;;;;5072649;28;20024;-58
2021/03/21 09:10:32;;;;;;;1.88;0.98;;;8.20;99.90;;;;;;5075748;28;20024;-57
2021/03/21 09:13:06;;;;;;;2.58;1.00;;;8.40;99.90;;;;;;5077045;28;20028;-57
2021/03/21 09:15:42;;;;;;;1.23;0.88;;;9.80;99.90;;;;;;5072568;28;20020;-55
2021/03/21 09:18:17;;;;;;;;;;;10.40;99.90;;;;;;5087536;28;20028;-56
2021/03/21 09:21:20;;;;;;;0.73;0.65;;;10.70;99.90;;;;;;5076439;28;19908;-58
2021/03/21 09:23:51;;;;;;;0.73;0.73;;;11.00;99.90;;;;;;5071550;28;20040;-58
2021/03/21 09:26:17;;;;;;;0.82;0.82;;;11.20;99.90;;;;;;5073054;28;20062;-59
2021/03/21 09:28:50;;;;;;;1.05;0.52;;;11.00;99.90;;;;;;5079020;28;20040;-57
2021/03/21 09:31:16;;;;;;;0.80;0.50;;;10.70;99.90;;;;;;5066959;28;20028;-59
2021/03/21 09:33:48;;;;;;;3.63;0.70;;;10.40;99.90;;;;;;5074700;28;20032;-57
2021/03/21 09:36:27;;;;;;;0.52;0.50;;;10.00;99.90;;;;;;5067057;28;20017;-59
2021/03/21 09:39:00;;;;;;;0.82;0.60;;;9.60;99.90;;;;;;5071595;28;20103;-58
2021/03/21 09:41:26;;;;;;;0.28;0.28;;;9.30;99.90;;;;;;5074320;28;20390;-57
2021/03/21 09:44:00;;;;;;;0.60;0.60;;;9.20;99.90;;;;;;5071349;28;20082;-58
2021/03/21 09:46:56;;;;;;;0.70;0.50;;;9.10;99.90;;;;;;5075568;28;20487;-56
2021/03/21 09:49:44;;;;;;;0.30;0.30;;;9.20;99.90;;;;;;5092212;28;20531;-55
2021/03/21 09:52:29;;;;;;;2.25;0.60;;;9.30;99.90;;;;;;5072302;28;20047;-53
2021/03/21 09:55:14;;;;;;;0.95;0.50;;;9.40;99.90;;;;;;5071571;28;20481;-56
2021/03/21 09:58:01;;;;;;;1.55;0.50;;;9.30;99.90;;;;;;5071787;28;20079;-59
2021/03/21 10:00:32;;;;;;;1.38;0.60;;;9.20;99.90;;;;;;5070547;28;20128;-59
2021/03/21 10:03:01;;;;;;;1.75;0.70;;;9.10;99.90;;;;;;5071672;28;20021;-58
2021/03/21 10:05:42;;;;;;;1.52;0.80;;;9.20;99.90;;;;;;5070784;28;20035;-56
2021/03/21 10:08:38;;;;;;;2.30;0.80;;;9.30;99.90;;;;;;5071639;28;20028;-54
2021/03/21 10:11:07;;;;;;;2.28;0.77;;;9.30;99.90;;;;;;5073661;28;20387;-57
2021/03/21 10:13:35;;;;;;;4.38;1.20;;;9.30;99.90;;;;;;5076935;28;20024;-56
2021/03/21 10:16:19;;;;;;;3.28;0.63;;;9.30;99.80;;;;;;5071432;28;20024;-58
2021/03/21 10:19:00;;;;;;;3.60;1.90;;;9.30;99.60;;;;;;5069308;28;20103;-58
2021/03/21 10:21:26;;;;;;;2.85;1.80;;;9.20;99.70;;;;;;5057825;28;20540;-52
2021/03/21 10:23:52;;;;;;;3.10;1.17;;;9.20;99.90;;;;;;5071536;28;20056;-55
2021/03/21 10:26:27;;;;;;;2.03;1.35;;;9.00;99.90;;;;;;5077859;28;20426;-53
2021/03/21 10:28:59;;;;;;;1.73;0.90;;;8.90;99.90;;;;;;5089470;28;20024;-52
2021/03/21 10:31:35;;;;;;;1.77;0.60;;;8.80;99.90;;;;;;5070692;28;20047;-54
2021/03/21 10:34:01;;;;;;;;;;;8.70;99.90;;;;;;5071760;28;20016;-59
2021/03/21 10:39:10;;;;;;;4.68;0.90;;;8.50;99.90;;;;;;5091350;28;20032;-57
2021/03/21 10:42:13;;;;;;;1.73;1.02;;;8.60;99.90;;;;;;5091246;28;20028;-54
2021/03/21 10:44:39;;;;;;;2.80;1.35;;;8.70;99.90;;;;;;5091359;28;20054;-58
2021/03/21 10:47:25;;;;;;;3.50;1.40;;;8.90;99.90;;;;;;5091313;28;20024;-59
2021/03/21 10:50:00;;;;;;;2.63;1.13;;;8.90;99.90;;;;;;5070544;28;20104;-58
2021/03/21 10:52:32;;;;;;;4.27;1.23;;;8.80;99.90;;;;;;5070754;28;20066;-57
2021/03/21 10:57:42;;;;;;;3.47;1.48;;;8.60;99.90;;;;;;5067550;28;20037;-59
2021/03/21 11:00:26;;;;;;;3.58;1.73;;;8.50;99.90;;;;;;5062760;28;20027;-53
2021/03/21 11:03:00;;;;;;;5.38;1.52;;;8.50;99.90;;;;;;5072154;28;20073;-54
2021/03/21 11:05:45;;;;;;;4.85;1.60;;;8.40;99.90;;;;;;5075442;28;20032;-56
2021/03/21 11:08:13;;;;;;;4.13;1.52;;;8.40;99.90;;;;;;5070835;28;20059;-53
2021/03/21 11:10:48;;;;;;;12.45;2.40;;;8.30;99.90;;;;;;5084265;28;20021;-55
2021/03/21 11:13:32;;;;;;;9.15;2.35;;;8.30;98.90;;;;;;5070995;28;20475;-56
2021/03/21 11:15:59;;;;;;;7.68;2.25;;;8.30;98.80;;;;;;5069911;28;20064;-57
2021/03/21 11:18:30;;;;;;;11.18;2.45;;;8.20;98.50;;;;;;5081148;28;20086;-56
2021/03/21 11:21:16;;;;;;;16.27;2.70;;;8.20;98.60;;;;;;5057075;28;20051;-55
2021/03/21 11:24:01;;;;;;;6.75;2.35;;;8.30;98.20;;;;;;5072190;28;20112;-54
2021/03/21 11:26:35;;;;;;;9.40;2.53;;;8.40;97.60;;;;;;5086015;28;20046;-58
2021/03/21 11:29:03;;;;;;;10.18;2.45;;;8.40;97.60;;;;;;5073127;28;20023;-57
2021/03/21 11:31:38;;;;;;;12.38;2.42;;;8.50;97.20;;;;;;5070939;28;20181;-56
2021/03/21 11:34:31;;;;;;;7.95;2.63;;;8.60;97.40;;;;;;5069725;28;20500;-57
2021/03/21 11:37:08;;;;;;;10.90;2.33;;;8.60;97.50;;;;;;5061325;28;20383;-57
2021/03/21 11:39:48;;;;;;;9.25;2.60;;;8.50;97.80;;;;;;5090449;28;20047;-54
2021/03/21 11:42:37;;;;;;;11.55;2.50;;;8.40;97.90;;;;;;5065584;28;20063;-56
2021/03/21 11:45:27;;;;;;;7.18;2.08;;;8.30;98.50;;;;;;5074340;28;20532;-57
2021/03/21 11:47:52;;;;;;;8.98;2.25;;;8.10;98.20;;;;;;5074018;28;20546;-51
2021/03/21 11:50:29;;;;;;;12.80;2.80;;;8.10;98.50;;;;;;5073323;28;20111;-57
2021/03/21 11:52:58;;;;;;;11.98;2.90;;;8.10;98.60;;;;;;5073833;28;20017;-57
2021/03/21 11:55:35;;;;;;;13.25;2.47;;;8.20;98.80;;;;;;5091169;28;20107;-56
2021/03/21 11:58:13;;;;;;;10.57;2.88;;;8.30;98.80;;;;;;5093796;28;20520;-57
2021/03/21 12:00:43;;;;;;;11.68;2.25;;;8.30;98.60;;;;;;5071630;28;20032;-56
2021/03/21 12:03:19;;;;;;;15.35;4.00;;;8.40;98.40;;;;;;5069651;28;20081;-56
2021/03/21 12:05:58;;;;;;;11.27;3.03;;;8.40;98.00;;;;;;5073118;28;20053;-54
2021/03/21 12:08:41;;;;;;;13.50;2.90;;;8.40;97.60;;;;;;5079277;28;20497;-56
2021/03/21 12:11:23;;;;;;;13.52;2.70;;;8.40;97.30;;;;;;5093827;28;20028;-57
2021/03/21 12:13:50;;;;;;;7.15;2.10;;;8.40;97.60;;;;;;5093820;28;20462;-57
2021/03/21 12:16:49;;;;;;;11.43;2.53;;;8.50;97.50;;;;;;5093736;28;20043;-54
2021/03/21 12:19:37;;;;;;;13.73;3.08;;;8.70;97.30;;;;;;5049669;28;20047;-54
2021/03/21 12:22:06;;;;;;;14.65;2.60;;;8.90;96.50;;;;;;5092507;28;20517;-57
2021/03/21 12:24:33;;;;;;;13.80;3.17;;;9.20;96.40;;;;;;5092286;28;20017;-56
2021/03/21 12:27:26;;;;;;;11.60;3.05;;;9.30;95.20;;;;;;5093576;28;20051;-57
2021/03/21 12:30:03;;;;;;;19.25;3.40;;;9.40;94.60;;;;;;5084946;28;20029;-55
2021/03/21 12:32:39;;;;;;;14.18;3.72;;;9.60;94.30;;;;;;5073407;28;20372;-56
2021/03/21 12:35:11;;;;;;;12.40;2.85;;;9.70;93.60;;;;;;5072387;28;20095;-55
2021/03/21 12:37:48;;;;;;;9.90;2.85;;;9.90;92.70;;;;;;5073497;28;20017;-54
2021/03/21 12:40:27;;;;;;;11.43;2.55;;;10.00;92.40;;;;;;5073382;28;20134;-55
2021/03/21 12:42:53;;;;;;;11.55;3.03;;;10.10;91.90;;;;;;5073042;28;20032;-55
2021/03/21 12:45:22;;;;;;;11.15;3.00;;;10.10;91.60;;;;;;5073049;28;20036;-57
2021/03/21 12:48:10;;;;;;;16.25;2.78;;;10.10;91.30;;;;;;5073336;28;20472;-58
2021/03/21 12:50:47;;;;;;;9.88;2.67;;;10.30;90.90;;;;;;5072180;28;20047;-58
2021/03/21 12:53:29;;;;;;;13.30;2.90;;;10.30;90.90;;;;;;5072522;28;20028;-56
2021/03/21 12:56:00;;;;;;;17.60;4.32;;;10.50;90.30;;;;;;5071713;28;20040;-55
2021/03/21 12:58:27;;;;;;;16.25;3.92;;;10.60;90.00;;;;;;5072577;28;20124;-55
2021/03/21 13:00:55;;;;;;;8.95;2.55;;;10.70;89.00;;;;;;5072920;28;20042;-54
2021/03/21 13:03:33;;;;;;;6.95;2.75;;;10.80;88.30;;;;;;5086928;28;20485;-55
2021/03/21 13:06:00;;;;;;;8.77;2.50;;;10.90;87.30;;;;;;5051995;28;20434;-57
2021/03/21 13:08:27;;;;;;;12.98;2.63;;;10.90;87.60;;;;;;5077555;28;20497;-57
2021/03/21 13:10:54;;;;;;;13.40;3.20;;;10.80;86.90;;;;;;5092995;28;20016;-54
2021/03/21 13:13:20;;;;;;;11.15;2.25;;;10.70;86.70;;;;;;5092797;28;20390;-56
2021/03/21 13:15:46;;;;;;;10.95;2.40;;;10.50;87.30;;;;;;5081217;28;20028;-56
2021/03/21 13:18:19;;;;;;;7.65;2.42;;;10.40;87.50;;;;;;5073405;28;20024;-57
2021/03/21 13:20:49;;;;;;;11.25;3.35;;;10.30;87.30;;;;;;5072532;28;20025;-57
2021/03/21 13:23:16;;;;;;;9.43;2.33;;;10.10;88.10;;;;;;5073319;28;20099;-55
2021/03/21 13:25:42;;;;;;;11.13;2.40;;;10.10;87.90;;;;;;5073357;28;20029;-56
2021/03/21 13:28:09;;;;;;;7.28;1.80;;;10.20;87.60;;;;;;5073306;28;20126;-56
2021/03/21 13:30:42;;;;;;;11.07;2.60;;;10.10;87.20;;;;;;5073189;28;20017;-55
2021/03/21 13:33:10;;;;;;;6.18;2.53;;;10.00;85.90;;;;;;5072978;28;20460;-56
2021/03/21 13:35:35;;;;;;;6.45;1.80;;;9.90;85.80;;;;;;5072427;28;20375;-55
2021/03/21 13:38:02;;;;;;;6.60;1.75;;;9.90;86.30;;;;;;5073226;28;20078;-55
2021/03/21 13:40:38;;;;;;;6.78;1.92;;;9.80;86.80;;;;;;5073140;28;20029;-54
2021/03/21 13:43:05;;;;;;;7.70;2.17;;;9.90;86.60;;;;;;5072898;28;20028;-57
2021/03/21 13:45:33;;;;;;;8.55;1.67;;;10.00;86.20;;;;;;5072664;28;20024;-57
2021/03/21 13:47:59;;;;;;;9.40;1.85;;;9.90;83.10;;;;;;5072978;28;20432;-57
2021/03/21 13:50:26;;;;;;;5.45;1.90;;;9.90;81.80;;;;;;5071860;28;20099;-54